Time;durP1;ratioP1;P1;durP2;ratioP2;P2;SDS_P1;SDS_P2;PMS_P1;PMS_P2;Temp;Humidity;BMP_temperature;BMP_pressure;BME280_temperature;BME280_humidity;BME280_pressure;Samples;Min_cycle;Max_cycle;Signal;HPM_P1;HPM_P2
2021/06/17 00:02:04;;;;;;;6.43;3.20;;;17.00;95.40;;;;;;4455859;32;20158;-68
2021/06/17 00:04:32;;;;;;;5.97;3.17;;;16.90;96.00;;;;;;4455962;32;20131;-68
2021/06/17 00:06:58;;;;;;;6.80;3.60;;;16.90;96.20;;;;;;4454468;32;20147;-68
2021/06/17 00:09:26;;;;;;;7.97;3.30;;;16.80;96.30;;;;;;4455927;32;20146;-68
2021/06/17 00:11:56;;;;;;;4.73;2.93;;;16.80;96.70;;;;;;4454376;32;20194;-68
2021/06/17 00:14:23;;;;;;;7.30;3.57;;;16.80;97.00;;;;;;4456408;32;20146;-68
2021/06/17 00:16:50;;;;;;;5.27;2.97;;;16.70;97.00;;;;;;4453678;32;20163;-68
2021/06/17 00:19:17;;;;;;;4.67;3.00;;;16.70;97.20;;;;;;4454423;32;20137;-68
2021/06/17 00:21:44;;;;;;;7.40;3.13;;;16.70;97.50;;;;;;4454520;32;20197;-69
2021/06/17 00:24:11;;;;;;;4.50;3.03;;;16.70;97.70;;;;;;4455536;32;20164;-69
2021/06/17 00:26:38;;;;;;;5.50;2.80;;;16.70;98.10;;;;;;4455445;32;20134;-69
2021/06/17 00:29:04;;;;;;;5.70;2.97;;;16.60;98.80;;;;;;4455675;32;20134;-69
2021/06/17 00:31:31;;;;;;;6.77;3.00;;;16.60;99.20;;;;;;4453356;32;20228;-68
2021/06/17 00:33:58;;;;;;;6.30;3.00;;;16.50;99.70;;;;;;4446243;32;20519;-69
2021/06/17 00:36:25;;;;;;;6.53;3.27;;;16.50;99.90;;;;;;4450936;32;20169;-69
2021/06/17 00:38:52;;;;;;;4.93;3.10;;;16.40;99.90;;;;;;4452868;32;20153;-69
2021/06/17 00:41:19;;;;;;;6.30;3.20;;;16.40;99.90;;;;;;4438807;32;20212;-69
2021/06/17 00:43:46;;;;;;;7.77;3.30;;;16.40;99.90;;;;;;4437527;32;20155;-69
2021/06/17 00:46:13;;;;;;;6.93;3.50;;;16.40;99.90;;;;;;4439490;32;20670;-69
2021/06/17 00:48:40;;;;;;;6.10;3.40;;;16.40;99.90;;;;;;4452767;32;20488;-69
2021/06/17 00:51:07;;;;;;;6.43;3.53;;;16.30;99.90;;;;;;4453859;32;20145;-69
2021/06/17 00:53:35;;;;;;;7.33;3.63;;;16.30;99.90;;;;;;4454091;32;20165;-69
2021/06/17 00:56:02;;;;;;;5.47;3.23;;;16.20;99.90;;;;;;4453114;32;20442;-69
2021/06/17 00:58:31;;;;;;;5.67;3.30;;;16.20;99.90;;;;;;4454486;32;20142;-69
2021/06/17 01:00:58;;;;;;;4.73;3.33;;;16.20;99.90;;;;;;4454096;32;20151;-69
2021/06/17 01:03:25;;;;;;;6.03;3.20;;;16.10;99.90;;;;;;4447721;32;20205;-69
2021/06/17 01:05:53;;;;;;;6.77;3.50;;;16.10;99.90;;;;;;4442459;32;20208;-69
2021/06/17 01:08:55;;;;;;;5.80;3.73;;;16.10;99.90;;;;;;4439416;32;20214;-68
2021/06/17 01:11:46;;;;;;;5.40;3.20;;;16.10;99.90;;;;;;4439959;32;20524;-69
2021/06/17 01:14:23;;;;;;;5.87;3.70;;;16.00;99.90;;;;;;4443106;32;20525;-69
2021/06/17 01:17:05;;;;;;;4.93;3.20;;;15.90;99.90;;;;;;4453935;32;20183;-69
2021/06/17 01:19:32;;;;;;;5.60;3.43;;;15.90;99.90;;;;;;4455562;32;20150;-69
2021/06/17 01:22:22;;;;;;;4.50;3.37;;;15.90;99.90;;;;;;4455293;32;20187;-69
2021/06/17 01:25:04;;;;;;;7.93;3.60;;;15.90;99.90;;;;;;4446013;32;20167;-69
2021/06/17 01:28:01;;;;;;;5.97;3.50;;;15.80;99.90;;;;;;4453665;32;20455;-69
2021/06/17 01:30:28;;;;;;;6.57;3.47;;;15.80;99.90;;;;;;4455275;32;20134;-68
2021/06/17 01:33:00;;;;;;;5.10;3.33;;;15.70;99.90;;;;;;4454689;32;20421;-68
2021/06/17 01:35:28;;;;;;;6.93;3.43;;;15.70;99.90;;;;;;4454164;32;20147;-68
2021/06/17 01:37:58;;;;;;;4.60;3.27;;;15.70;99.90;;;;;;4455249;32;20206;-68
2021/06/17 01:40:27;;;;;;;5.80;3.23;;;15.70;99.90;;;;;;4455181;32;20150;-69
2021/06/17 01:42:56;;;;;;;4.77;3.60;;;15.70;99.90;;;;;;4456590;32;20229;-68
2021/06/17 01:45:24;;;;;;;5.33;3.30;;;15.70;99.90;;;;;;4457076;32;20207;-69
2021/06/17 01:47:53;;;;;;;4.90;3.10;;;15.70;99.90;;;;;;4456945;32;20184;-69
2021/06/17 01:50:24;;;;;;;5.70;3.00;;;15.60;99.90;;;;;;4458204;32;20365;-69
2021/06/17 01:52:53;;;;;;;4.73;3.30;;;15.60;99.90;;;;;;4457878;32;20194;-69
2021/06/17 01:55:22;;;;;;;7.07;3.60;;;15.60;99.90;;;;;;4457896;32;20188;-69
2021/06/17 01:57:50;;;;;;;8.03;3.60;;;15.60;99.90;;;;;;4456274;32;20203;-69
2021/06/17 02:00:17;;;;;;;6.57;3.60;;;15.50;99.90;;;;;;4455775;32;20150;-69
2021/06/17 02:02:45;;;;;;;5.80;3.63;;;15.50;99.90;;;;;;4456257;32;20162;-68
2021/06/17 02:05:13;;;;;;;7.00;3.53;;;15.50;99.90;;;;;;4456123;32;20208;-69
2021/06/17 02:07:42;;;;;;;6.60;3.60;;;15.40;99.90;;;;;;4454247;32;20195;-69
2021/06/17 02:10:11;;;;;;;5.23;3.40;;;15.40;99.90;;;;;;4451221;32;20158;-69
2021/06/17 02:12:41;;;;;;;7.50;3.80;;;15.30;99.90;;;;;;4440626;32;20159;-69
2021/06/17 02:15:08;;;;;;;6.63;3.43;;;15.30;99.90;;;;;;4440580;32;20165;-68
2021/06/17 02:17:41;;;;;;;7.77;3.97;;;15.30;99.90;;;;;;4439498;32;20548;-69
2021/06/17 02:20:09;;;;;;;6.90;3.67;;;15.30;99.90;;;;;;4442364;32;20135;-69
2021/06/17 02:22:40;;;;;;;7.27;3.70;;;15.20;99.90;;;;;;4442075;32;20437;-68
2021/06/17 02:25:08;;;;;;;6.63;3.60;;;15.20;99.90;;;;;;4442465;32;20448;-70
2021/06/17 02:27:37;;;;;;;6.50;4.03;;;15.20;99.90;;;;;;4441959;32;20151;-68
2021/06/17 02:30:09;;;;;;;6.50;3.80;;;15.20;99.90;;;;;;4441921;32;20199;-69
2021/06/17 02:32:43;;;;;;;6.60;3.63;;;15.20;99.90;;;;;;4441804;32;20418;-68
2021/06/17 02:35:11;;;;;;;6.30;3.70;;;15.20;99.90;;;;;;4440309;32;20169;-69
2021/06/17 02:37:42;;;;;;;7.40;3.90;;;15.20;99.90;;;;;;4441108;32;20212;-68
2021/06/17 02:40:11;;;;;;;6.20;3.50;;;15.20;99.90;;;;;;4442052;32;20217;-68
2021/06/17 02:42:59;;;;;;;6.27;3.80;;;15.10;99.90;;;;;;4441191;32;20407;-70
2021/06/17 02:45:31;;;;;;;5.90;3.77;;;15.10;99.90;;;;;;4440271;32;20170;-69
2021/06/17 02:47:58;;;;;;;5.83;3.70;;;15.10;99.90;;;;;;4441500;32;20178;-68
2021/06/17 02:50:25;;;;;;;6.53;3.90;;;15.10;99.90;;;;;;4441642;32;20173;-68
2021/06/17 02:52:52;;;;;;;6.43;3.53;;;15.00;99.90;;;;;;4440028;32;20205;-69
2021/06/17 02:55:19;;;;;;;7.90;3.73;;;15.10;99.90;;;;;;4440444;32;20521;-69
2021/06/17 02:58:00;;;;;;;7.27;3.77;;;15.00;99.90;;;;;;4441321;32;20154;-69
2021/06/17 03:00:30;;;;;;;8.10;4.10;;;15.10;99.90;;;;;;4440132;32;20134;-68
2021/06/17 03:03:30;;;;;;;7.00;3.93;;;15.10;99.90;;;;;;4441487;32;20169;-69
2021/06/17 03:06:12;;;;;;;7.27;4.10;;;15.10;99.90;;;;;;4441365;32;20135;-69
2021/06/17 03:08:50;;;;;;;6.53;3.87;;;15.10;99.90;;;;;;4439850;32;20138;-69
2021/06/17 03:11:18;;;;;;;5.97;4.20;;;15.10;99.90;;;;;;4439993;32;20138;-69
2021/06/17 03:13:50;;;;;;;9.43;4.33;;;15.20;99.90;;;;;;4441184;32;20196;-70
2021/06/17 03:16:21;;;;;;;6.17;3.80;;;15.20;99.90;;;;;;4439736;32;20166;-69
2021/06/17 03:18:51;;;;;;;6.87;3.60;;;15.20;99.90;;;;;;4441419;32;20242;-69
2021/06/17 03:21:19;;;;;;;7.77;3.80;;;15.30;99.90;;;;;;4439677;32;20210;-69
2021/06/17 03:23:48;;;;;;;6.07;3.63;;;15.30;99.90;;;;;;4439722;32;20154;-68
2021/06/17 03:26:16;;;;;;;6.70;3.83;;;15.40;99.90;;;;;;4441094;32;20487;-68
2021/06/17 03:28:45;;;;;;;7.47;3.60;;;15.50;99.90;;;;;;4441184;32;20494;-68
2021/06/17 03:31:14;;;;;;;8.13;4.20;;;15.50;99.90;;;;;;4439533;32;20138;-68
2021/06/17 03:33:42;;;;;;;5.33;3.73;;;15.50;99.90;;;;;;4439414;32;20150;-68
2021/06/17 03:36:10;;;;;;;5.90;3.50;;;15.60;99.90;;;;;;4438613;32;20497;-68
2021/06/17 03:38:40;;;;;;;5.17;3.37;;;15.60;99.90;;;;;;4439437;32;20155;-69
2021/06/17 03:41:10;;;;;;;5.57;3.80;;;15.60;99.90;;;;;;4440892;32;20142;-68
2021/06/17 03:43:39;;;;;;;7.97;4.03;;;15.70;99.90;;;;;;4439315;32;20203;-69
2021/06/17 03:46:09;;;;;;;6.10;3.97;;;15.70;99.90;;;;;;4440656;32;20407;-68
2021/06/17 03:48:40;;;;;;;6.07;3.60;;;15.80;99.90;;;;;;4440514;32;20142;-69
2021/06/17 03:51:07;;;;;;;5.93;3.77;;;15.80;99.90;;;;;;4440812;32;20213;-69
2021/06/17 03:53:37;;;;;;;6.83;3.90;;;15.80;99.90;;;;;;4440657;32;20535;-69
2021/06/17 03:56:05;;;;;;;8.83;4.23;;;15.90;99.90;;;;;;4441223;32;20155;-69
2021/06/17 03:58:32;;;;;;;6.07;3.70;;;16.00;99.90;;;;;;4440626;32;20147;-69
2021/06/17 04:00:59;;;;;;;6.10;3.70;;;16.00;99.90;;;;;;4439098;32;20138;-69
2021/06/17 04:03:28;;;;;;;6.03;3.37;;;16.00;99.90;;;;;;4440368;32;20173;-69
2021/06/17 04:05:57;;;;;;;5.67;3.40;;;16.10;99.90;;;;;;4440405;32;20178;-69
2021/06/17 04:08:31;;;;;;;5.90;3.30;;;16.10;99.90;;;;;;4438940;32;20147;-69
2021/06/17 04:11:00;;;;;;;7.03;3.57;;;16.20;99.90;;;;;;4440574;32;20134;-69
2021/06/17 04:13:30;;;;;;;7.43;3.17;;;16.20;99.90;;;;;;4439786;32;20198;-68
2021/06/17 04:15:58;;;;;;;5.77;3.57;;;16.30;99.90;;;;;;4438960;32;20209;-69
2021/06/17 04:18:25;;;;;;;6.40;3.87;;;16.30;99.90;;;;;;4440192;32;20185;-69
2021/06/17 04:20:55;;;;;;;5.43;3.67;;;16.40;99.90;;;;;;4438865;32;20138;-68
2021/06/17 04:23:24;;;;;;;5.00;3.33;;;16.40;99.90;;;;;;4438865;32;20147;-69
2021/06/17 04:25:53;;;;;;;7.87;3.80;;;16.50;99.90;;;;;;4442430;32;20365;-69
2021/06/17 04:28:27;;;;;;;7.33;3.60;;;16.50;99.90;;;;;;4445863;32;20192;-69
2021/06/17 04:30:57;;;;;;;6.83;3.60;;;16.60;99.90;;;;;;4440205;32;20519;-69
2021/06/17 04:33:26;;;;;;;9.47;3.80;;;16.70;99.90;;;;;;4448258;32;20177;-69
2021/06/17 04:35:59;;;;;;;8.30;3.83;;;16.80;99.90;;;;;;4438693;32;20248;-69
2021/06/17 04:38:27;;;;;;;7.53;3.33;;;16.80;99.90;;;;;;4440247;32;20201;-69
2021/06/17 04:40:55;;;;;;;4.93;3.17;;;16.90;99.90;;;;;;4438601;32;20205;-69
2021/06/17 04:43:22;;;;;;;6.00;3.23;;;16.90;99.90;;;;;;4438708;32;20197;-69
2021/06/17 04:45:54;;;;;;;4.07;2.80;;;17.10;99.90;;;;;;4440232;32;20489;-70
2021/06/17 04:48:24;;;;;;;8.77;3.10;;;17.10;99.90;;;;;;4438040;32;20467;-68
2021/06/17 04:50:51;;;;;;;5.17;3.20;;;17.20;99.90;;;;;;4438575;32;20131;-69
2021/06/17 04:53:19;;;;;;;7.50;3.10;;;17.30;99.90;;;;;;4440035;32;20139;-69
2021/06/17 04:55:56;;;;;;;5.33;2.77;;;17.40;99.90;;;;;;4440357;32;20173;-69
2021/06/17 04:58:24;;;;;;;6.10;3.10;;;17.40;99.90;;;;;;4440323;32;20146;-69
2021/06/17 05:00:51;;;;;;;5.93;3.13;;;17.50;99.90;;;;;;4440259;32;20200;-67
2021/06/17 05:03:19;;;;;;;8.40;2.80;;;17.60;99.90;;;;;;4438576;32;20162;-67
2021/06/17 05:05:51;;;;;;;4.50;2.63;;;17.60;99.90;;;;;;4438701;32;20212;-69
2021/06/17 05:10:53;;;;;;;5.10;2.90;;;17.80;99.90;;;;;;4438342;32;20142;-69
2021/06/17 05:13:30;;;;;;;5.87;2.50;;;17.90;99.90;;;;;;4440221;32;20161;-69
2021/06/17 05:16:00;;;;;;;5.63;2.70;;;17.90;99.90;;;;;;4439984;32;20165;-69
2021/06/17 05:18:28;;;;;;;6.47;2.80;;;18.00;99.90;;;;;;4441897;32;20166;-68
2021/06/17 05:20:56;;;;;;;3.90;2.50;;;18.10;99.90;;;;;;4442917;32;20130;-68
2021/06/17 05:23:23;;;;;;;4.77;2.60;;;18.20;99.90;;;;;;4441765;32;20138;-69
2021/06/17 05:25:52;;;;;;;6.13;2.90;;;18.30;99.90;;;;;;4441737;32;20135;-67
2021/06/17 05:28:22;;;;;;;7.70;3.03;;;18.40;99.90;;;;;;4441814;32;20163;-67
2021/06/17 05:30:51;;;;;;;7.73;3.00;;;18.50;99.90;;;;;;4441097;32;20139;-68
2021/06/17 05:33:18;;;;;;;4.33;2.77;;;18.60;99.90;;;;;;4442884;32;20138;-67
2021/06/17 05:35:46;;;;;;;7.93;2.93;;;18.70;99.90;;;;;;4451544;32;20181;-67
2021/06/17 05:38:18;;;;;;;6.80;2.80;;;18.80;99.90;;;;;;4451095;32;20147;-67
2021/06/17 05:40:45;;;;;;;6.13;2.50;;;18.80;99.90;;;;;;4457144;32;20563;-67
2021/06/17 05:43:13;;;;;;;7.10;2.77;;;18.90;99.90;;;;;;4457506;32;20143;-68
2021/06/17 05:45:42;;;;;;;5.13;2.60;;;19.00;99.90;;;;;;4457728;32;20373;-68
2021/06/17 05:48:09;;;;;;;7.37;2.50;;;19.10;99.90;;;;;;4456304;32;20221;-67
2021/06/17 05:50:37;;;;;;;7.23;2.60;;;19.20;99.90;;;;;;4457861;32;20187;-67
2021/06/17 05:53:04;;;;;;;4.50;2.47;;;19.30;99.90;;;;;;4456385;32;20154;-67
2021/06/17 05:55:31;;;;;;;5.37;2.40;;;19.40;99.90;;;;;;4457741;32;20512;-68
2021/06/17 05:57:58;;;;;;;5.80;2.40;;;19.50;99.90;;;;;;4457793;32;20223;-68
2021/06/17 06:00:25;;;;;;;7.67;2.57;;;19.60;99.90;;;;;;4457667;32;20190;-67
2021/06/17 06:02:52;;;;;;;6.33;2.53;;;19.70;99.90;;;;;;4456415;32;20478;-70
2021/06/17 06:05:19;;;;;;;5.07;2.20;;;19.80;99.90;;;;;;4457923;32;20147;-70
2021/06/17 06:07:54;;;;;;;5.53;2.43;;;19.80;99.90;;;;;;4457887;32;20230;-67
2021/06/17 06:10:21;;;;;;;7.93;2.30;;;19.90;99.90;;;;;;4457412;32;20160;-71
2021/06/17 06:12:48;;;;;;;6.17;2.30;;;19.90;99.90;;;;;;4450614;32;20315;-67
2021/06/17 06:15:15;;;;;;;6.20;2.27;;;19.90;99.40;;;;;;4450795;32;20174;-67
2021/06/17 06:17:42;;;;;;;5.03;2.30;;;20.10;98.80;;;;;;4457427;32;20173;-67
2021/06/17 06:20:11;;;;;;;4.17;2.13;;;20.20;98.70;;;;;;4456520;32;20172;-68
2021/06/17 06:22:38;;;;;;;4.63;2.27;;;20.30;99.20;;;;;;4454771;32;20153;-67
2021/06/17 06:25:06;;;;;;;4.53;1.93;;;20.40;98.90;;;;;;4456646;32;20522;-67
2021/06/17 06:27:33;;;;;;;5.47;2.20;;;20.50;99.00;;;;;;4456793;32;20242;-66
2021/06/17 06:30:03;;;;;;;4.73;2.10;;;20.50;97.10;;;;;;4456215;32;20162;-66
2021/06/17 06:32:30;;;;;;;3.33;2.00;;;20.60;98.50;;;;;;4439861;32;20235;-66
2021/06/17 06:34:58;;;;;;;4.70;2.27;;;20.70;97.70;;;;;;4446428;32;20170;-67
2021/06/17 06:37:27;;;;;;;2.87;2.00;;;20.80;97.20;;;;;;4452420;32;20238;-69
2021/06/17 06:39:54;;;;;;;5.17;2.20;;;20.90;97.40;;;;;;4447878;32;20758;-67
2021/06/17 06:42:21;;;;;;;7.90;2.20;;;21.00;96.20;;;;;;4446369;32;20229;-67
2021/06/17 06:44:48;;;;;;;5.33;2.30;;;21.10;96.80;;;;;;4452663;32;20162;-67
2021/06/17 06:47:15;;;;;;;6.10;2.57;;;21.20;94.60;;;;;;4455049;32;20343;-67
2021/06/17 06:49:42;;;;;;;3.77;2.30;;;21.30;96.20;;;;;;4457305;32;20146;-67
2021/06/17 06:52:09;;;;;;;4.93;2.33;;;21.40;95.80;;;;;;4455563;32;20536;-67
2021/06/17 06:54:36;;;;;;;4.37;2.60;;;21.40;94.80;;;;;;4456202;32;20214;-67
2021/06/17 06:57:04;;;;;;;5.60;2.53;;;21.60;95.10;;;;;;4456540;32;20150;-66
2021/06/17 06:59:30;;;;;;;4.13;2.30;;;21.60;94.80;;;;;;4456229;32;20154;-67
2021/06/17 07:01:57;;;;;;;6.23;2.33;;;21.70;93.90;;;;;;4456661;32;20380;-66
2021/06/17 07:04:27;;;;;;;4.77;2.20;;;21.80;94.80;;;;;;4456826;32;20205;-66
2021/06/17 07:06:54;;;;;;;5.77;2.50;;;21.80;94.20;;;;;;4457031;32;20222;-67
2021/06/17 07:09:21;;;;;;;4.40;2.23;;;21.90;93.10;;;;;;4456762;32;20218;-67
2021/06/17 07:11:48;;;;;;;3.17;2.10;;;22.10;92.50;;;;;;4440660;32;20135;-67
2021/06/17 07:14:16;;;;;;;7.03;2.53;;;22.10;91.80;;;;;;4441729;32;20165;-66
2021/06/17 07:16:43;;;;;;;4.30;2.10;;;22.20;92.50;;;;;;4441195;32;20411;-67
2021/06/17 07:19:11;;;;;;;7.33;2.23;;;22.20;92.40;;;;;;4441139;32;20165;-66
2021/06/17 07:21:38;;;;;;;6.17;2.40;;;22.30;91.00;;;;;;4441255;32;20207;-66
2021/06/17 07:24:05;;;;;;;5.50;2.20;;;22.40;90.60;;;;;;4439452;32;20147;-67
2021/06/17 07:26:32;;;;;;;4.00;2.00;;;22.40;91.00;;;;;;4440723;32;20139;-67
2021/06/17 07:29:04;;;;;;;5.83;1.97;;;22.40;87.00;;;;;;4439724;32;20491;-66
2021/06/17 07:31:31;;;;;;;3.67;2.07;;;22.50;88.10;;;;;;4441287;32;20139;-69
2021/06/17 07:33:58;;;;;;;5.27;2.20;;;22.50;85.50;;;;;;4441155;32;20134;-67
2021/06/17 07:36:25;;;;;;;4.32;2.10;;;22.60;87.70;;;;;;4439024;32;20208;-66
2021/06/17 07:38:52;;;;;;;6.10;2.45;;;22.70;84.90;;;;;;4440657;32;20146;-67
2021/06/17 07:41:19;;;;;;;4.80;2.30;;;22.80;88.20;;;;;;4440316;32;20158;-67
2021/06/17 07:43:46;;;;;;;2.93;1.90;;;23.00;88.60;;;;;;4440133;32;20506;-67
2021/06/17 07:46:13;;;;;;;11.53;2.70;;;23.10;88.10;;;;;;4440270;32;20142;-67
2021/06/17 07:48:40;;;;;;;9.33;2.43;;;23.20;87.10;;;;;;4438756;32;20143;-67
2021/06/17 07:51:08;;;;;;;3.78;2.08;;;23.30;85.10;;;;;;4440771;32;20170;-66
2021/06/17 07:53:35;;;;;;;5.00;2.27;;;23.30;84.40;;;;;;4440536;32;20209;-67
2021/06/17 07:56:03;;;;;;;3.28;2.00;;;23.40;82.50;;;;;;4440554;32;20476;-68
2021/06/17 07:58:30;;;;;;;4.80;2.20;;;23.50;82.10;;;;;;4439240;32;20420;-66
2021/06/17 08:00:57;;;;;;;5.37;2.10;;;23.50;78.80;;;;;;4440049;32;20177;-67
2021/06/17 08:03:27;;;;;;;4.18;2.33;;;23.40;78.70;;;;;;4440632;32;20396;-67
2021/06/17 08:05:54;;;;;;;4.33;2.30;;;23.50;81.20;;;;;;4439995;32;20181;-67
2021/06/17 08:08:22;;;;;;;3.17;2.27;;;23.60;81.20;;;;;;4436080;32;20168;-67
2021/06/17 08:10:50;;;;;;;2.83;2.03;;;23.70;82.40;;;;;;4430937;32;20233;-67
2021/06/17 08:13:17;;;;;;;6.23;2.37;;;23.80;79.40;;;;;;4424361;32;20527;-67
2021/06/17 08:15:44;;;;;;;5.68;2.40;;;23.90;78.40;;;;;;4423786;32;20202;-67
2021/06/17 08:18:11;;;;;;;5.50;2.30;;;24.00;76.10;;;;;;4423433;32;20224;-66
2021/06/17 08:20:38;;;;;;;4.28;2.58;;;24.00;74.90;;;;;;4424708;32;20151;-66
2021/06/17 08:23:05;;;;;;;5.43;2.50;;;24.00;73.40;;;;;;4424878;32;20487;-67
2021/06/17 08:25:33;;;;;;;5.78;2.50;;;24.30;75.90;;;;;;4424989;32;20207;-67
2021/06/17 08:28:04;;;;;;;3.30;2.47;;;25.10;75.30;;;;;;4423580;32;20188;-67
2021/06/17 08:30:33;;;;;;;5.53;2.50;;;26.00;71.90;;;;;;4425063;32;20203;-67
2021/06/17 08:33:00;;;;;;;6.10;2.53;;;26.80;65.70;;;;;;4424770;32;20162;-66
2021/06/17 08:35:27;;;;;;;6.30;2.58;;;27.60;65.30;;;;;;4423085;32;20520;-66
2021/06/17 08:37:54;;;;;;;3.08;2.30;;;28.00;63.60;;;;;;4423346;32;20154;-67
2021/06/17 08:40:30;;;;;;;3.75;2.17;;;28.40;59.90;;;;;;4424071;32;20170;-67
2021/06/17 08:43:01;;;;;;;4.60;2.30;;;28.80;58.90;;;;;;4424823;32;20166;-67
2021/06/17 08:45:28;;;;;;;4.30;2.08;;;29.20;55.90;;;;;;4424047;32;20183;-66
2021/06/17 08:47:55;;;;;;;5.47;2.40;;;29.40;55.30;;;;;;4425247;32;20202;-65
2021/06/17 08:50:23;;;;;;;4.25;2.25;;;29.60;53.90;;;;;;4424742;32;20135;-65
2021/06/17 08:52:50;;;;;;;5.50;2.15;;;29.80;53.70;;;;;;4428543;32;20479;-67
2021/06/17 08:55:23;;;;;;;5.40;2.35;;;30.00;53.10;;;;;;4428461;32;20183;-66
2021/06/17 08:57:52;;;;;;;3.42;1.83;;;30.30;51.40;;;;;;4431570;32;20158;-66
2021/06/17 09:00:22;;;;;;;4.45;2.30;;;30.20;51.70;;;;;;4426481;32;20151;-66
2021/06/17 09:03:21;;;;;;;3.90;2.17;;;29.90;52.30;;;;;;4437159;32;20146;-66
2021/06/17 09:05:54;;;;;;;6.60;2.47;;;29.70;51.70;;;;;;4379690;32;20152;-67
2021/06/17 09:08:30;;;;;;;4.28;2.10;;;29.90;53.80;;;;;;4391636;32;20194;-66
2021/06/17 09:10:58;;;;;;;3.05;2.05;;;30.20;53.10;;;;;;4393638;32;20203;-66
2021/06/17 09:13:32;;;;;;;3.25;2.03;;;30.50;52.40;;;;;;4394998;32;20144;-67
2021/06/17 09:16:00;;;;;;;3.10;1.90;;;30.40;50.00;;;;;;4395288;32;20146;-66
2021/06/17 09:18:37;;;;;;;6.28;1.87;;;30.20;50.70;;;;;;4395337;32;20436;-67
2021/06/17 09:21:09;;;;;;;4.68;2.28;;;30.30;50.40;;;;;;4393382;32;20427;-67
2021/06/17 09:23:38;;;;;;;7.72;2.28;;;30.10;50.50;;;;;;4395107;32;20167;-68
2021/06/17 09:26:20;;;;;;;5.05;2.03;;;30.10;49.10;;;;;;4393135;32;20148;-66
2021/06/17 09:29:10;;;;;;;3.85;1.90;;;30.30;51.50;;;;;;4393766;32;20627;-66
2021/06/17 09:31:42;;;;;;;3.67;1.90;;;30.50;48.80;;;;;;4392884;32;20185;-66
2021/06/17 09:34:11;;;;;;;8.45;2.25;;;30.50;48.70;;;;;;4394301;32;20183;-69
2021/06/17 09:36:40;;;;;;;9.90;2.37;;;30.70;48.20;;;;;;4392808;32;20206;-66
2021/06/17 09:39:15;;;;;;;4.78;2.20;;;31.00;47.60;;;;;;4394769;32;20515;-67
2021/06/17 09:41:47;;;;;;;3.83;2.00;;;31.40;47.50;;;;;;4419439;32;20399;-69
2021/06/17 09:44:33;;;;;;;10.52;2.75;;;31.60;45.50;;;;;;4437536;32;20166;-67
2021/06/17 09:47:10;;;;;;;1.83;1.50;;;31.80;44.40;;;;;;4437232;32;20199;-68
2021/06/17 09:49:38;;;;;;;6.62;1.85;;;31.50;43.70;;;;;;4438990;32;20199;-67
2021/06/17 09:52:07;;;;;;;3.20;1.75;;;31.30;44.60;;;;;;4437590;32;20203;-68
2021/06/17 09:54:36;;;;;;;4.07;1.85;;;31.40;45.20;;;;;;4437487;32;20150;-66
2021/06/17 09:57:06;;;;;;;2.70;1.58;;;31.50;43.00;;;;;;4439560;32;20150;-67
2021/06/17 09:59:47;;;;;;;2.20;1.75;;;31.50;44.40;;;;;;4439847;32;20170;-67
2021/06/17 10:02:23;;;;;;;5.12;1.65;;;31.80;43.10;;;;;;4441508;32;20138;-67
2021/06/17 10:04:51;;;;;;;4.85;1.90;;;31.80;43.30;;;;;;4440788;32;20195;-67
2021/06/17 10:07:18;;;;;;;2.40;1.67;;;31.80;42.40;;;;;;4442379;32;20170;-66
2021/06/17 10:09:46;;;;;;;13.65;2.67;;;32.20;42.90;;;;;;4442285;32;20138;-67
2021/06/17 10:12:13;;;;;;;7.70;2.33;;;32.50;43.90;;;;;;4442100;32;20146;-67
2021/06/17 10:14:41;;;;;;;4.00;1.80;;;32.30;42.30;;;;;;4439930;32;20198;-67
2021/06/17 10:17:08;;;;;;;2.35;1.67;;;32.40;42.50;;;;;;4442209;32;20197;-68
2021/06/17 10:19:35;;;;;;;6.80;2.08;;;32.50;40.70;;;;;;4441949;32;20199;-67
2021/06/17 10:22:03;;;;;;;3.12;1.80;;;32.90;41.90;;;;;;4441881;32;20143;-67
2021/06/17 10:24:35;;;;;;;3.50;1.80;;;33.30;40.70;;;;;;4442209;32;20206;-67
2021/06/17 10:27:11;;;;;;;6.37;2.00;;;33.70;40.60;;;;;;4442203;32;20146;-68
2021/06/17 10:29:40;;;;;;;3.72;1.65;;;33.80;40.30;;;;;;4442096;32;20226;-67
2021/06/17 10:32:09;;;;;;;2.72;1.70;;;34.30;40.00;;;;;;4442151;32;20143;-68
2021/06/17 10:34:39;;;;;;;2.03;1.40;;;34.10;38.40;;;;;;4441573;32;20147;-68
2021/06/17 10:37:15;;;;;;;5.57;1.80;;;33.50;39.20;;;;;;4440550;32;20195;-68
2021/06/17 10:39:45;;;;;;;3.25;1.55;;;33.50;39.80;;;;;;4436549;32;20213;-69
2021/06/17 10:42:16;;;;;;;3.70;1.92;;;33.80;40.30;;;;;;4425109;32;20158;-69
2021/06/17 10:44:48;;;;;;;2.35;1.67;;;34.10;39.60;;;;;;4425363;32;20517;-68
2021/06/17 10:47:38;;;;;;;3.45;1.50;;;34.50;38.40;;;;;;4425705;32;20158;-66
2021/06/17 10:50:07;;;;;;;3.37;1.60;;;34.40;37.10;;;;;;4426016;32;20169;-67
2021/06/17 10:52:36;;;;;;;2.00;1.50;;;34.30;37.40;;;;;;4424555;32;20135;-68
2021/06/17 10:55:07;;;;;;;3.97;1.95;;;34.40;37.30;;;;;;4424970;32;20423;-69
2021/06/17 10:57:44;;;;;;;6.93;2.62;;;34.70;37.20;;;;;;4425953;32;20233;-67
2021/06/17 11:00:24;;;;;;;4.18;1.70;;;35.20;37.10;;;;;;4425389;32;20426;-67
2021/06/17 11:02:55;;;;;;;2.60;1.70;;;35.50;37.60;;;;;;4424357;32;20228;-67
2021/06/17 11:05:34;;;;;;;2.42;1.60;;;35.50;36.00;;;;;;4426181;32;20150;-67
2021/06/17 11:08:19;;;;;;;2.33;1.50;;;35.40;37.00;;;;;;4425152;32;20222;-68
2021/06/17 11:10:52;;;;;;;2.70;1.70;;;35.80;36.70;;;;;;4426017;32;20139;-67
2021/06/17 11:13:40;;;;;;;3.95;2.25;;;35.70;34.90;;;;;;4425372;32;20243;-68
2021/06/17 11:16:33;;;;;;;6.80;1.60;;;35.90;35.60;;;;;;4424527;32;20174;-67
2021/06/17 11:21:31;;;;;;;2.83;1.65;;;36.00;34.30;;;;;;4423835;32;20151;-67
2021/06/17 11:24:02;;;;;;;1.92;1.50;;;36.30;34.10;;;;;;4424181;32;20179;-67
2021/06/17 11:26:44;;;;;;;2.40;1.55;;;36.20;34.80;;;;;;4425554;32;20445;-67
2021/06/17 11:29:53;;;;;;;5.20;1.80;;;36.50;34.20;;;;;;4423755;32;20449;-66
2021/06/17 11:32:32;;;;;;;2.92;1.40;;;36.60;33.40;;;;;;4362179;32;20499;-67
2021/06/17 11:34:59;;;;;;;2.40;1.60;;;36.80;33.40;;;;;;4363294;32;20155;-67
2021/06/17 11:37:31;;;;;;;2.72;1.60;;;36.60;33.50;;;;;;4349066;33;20151;-66
2021/06/17 11:39:59;;;;;;;3.17;1.52;;;36.90;32.80;;;;;;4367052;32;20238;-69
2021/06/17 11:42:25;;;;;;;10.82;4.35;;;37.10;32.60;;;;;;4367435;32;20160;-67
2021/06/17 11:45:06;;;;;;;2.47;1.55;;;37.60;32.40;;;;;;4361535;32;20208;-67
2021/06/17 11:47:43;;;;;;;1.90;1.30;;;37.90;32.40;;;;;;4362720;32;20248;-67
2021/06/17 11:50:11;;;;;;;1.67;1.58;;;37.60;31.10;;;;;;4363008;32;20208;-66
2021/06/17 11:52:40;;;;;;;3.45;1.60;;;37.50;31.70;;;;;;4361302;32;20182;-65
2021/06/17 11:55:09;;;;;;;2.15;1.42;;;37.60;33.10;;;;;;4362044;32;20165;-66
2021/06/17 11:57:38;;;;;;;3.05;1.40;;;37.70;31.70;;;;;;4361020;32;20171;-67
2021/06/17 12:00:09;;;;;;;2.22;1.40;;;38.10;31.10;;;;;;4362711;32;20560;-67
2021/06/17 12:02:48;;;;;;;2.90;1.70;;;38.10;30.00;;;;;;4362155;32;20480;-67
2021/06/17 12:05:21;;;;;;;3.05;1.42;;;38.00;30.90;;;;;;4362761;32;20164;-67
2021/06/17 12:07:49;;;;;;;1.62;1.42;;;38.20;31.50;;;;;;4374381;32;20218;-67
2021/06/17 12:10:22;;;;;;;6.65;1.95;;;38.40;29.90;;;;;;4428506;32;20166;-67
2021/06/17 12:12:56;;;;;;;2.50;1.45;;;38.30;30.00;;;;;;4440546;32;20138;-67
2021/06/17 12:15:35;;;;;;;3.22;1.50;;;38.30;30.60;;;;;;4437175;32;20155;-68
2021/06/17 12:18:07;;;;;;;4.75;1.30;;;38.30;30.50;;;;;;4430651;32;20196;-68
2021/06/17 12:20:43;;;;;;;2.97;1.42;;;38.20;29.10;;;;;;4430914;32;20398;-69
2021/06/17 12:23:20;;;;;;;7.32;2.28;;;38.20;30.90;;;;;;4424222;32;20139;-68
2021/06/17 12:25:57;;;;;;;1.85;1.37;;;38.30;29.80;;;;;;4423539;32;20223;-69
2021/06/17 12:28:25;;;;;;;3.40;1.60;;;38.80;29.40;;;;;;4424089;32;20206;-69
2021/06/17 12:30:54;;;;;;;1.62;1.50;;;38.60;29.10;;;;;;4423733;32;20198;-70
2021/06/17 12:33:25;;;;;;;3.78;1.40;;;38.60;29.50;;;;;;4425256;32;20134;-69
2021/06/17 12:36:04;;;;;;;2.83;1.65;;;38.30;29.50;;;;;;4423744;32;20208;-69
2021/06/17 12:38:33;;;;;;;3.08;1.45;;;38.60;30.50;;;;;;4425155;32;20161;-70
2021/06/17 12:41:18;;;;;;;7.12;2.42;;;38.80;30.20;;;;;;4423612;32;20155;-69
2021/06/17 12:43:48;;;;;;;2.75;1.48;;;39.20;30.00;;;;;;4423347;32;20139;-67
2021/06/17 12:46:22;;;;;;;3.95;1.50;;;39.40;29.40;;;;;;4423560;32;20157;-69
2021/06/17 12:49:11;;;;;;;7.22;1.90;;;39.10;28.90;;;;;;4424613;32;20178;-69
2021/06/17 12:52:06;;;;;;;2.40;1.58;;;39.40;30.20;;;;;;4425041;32;20167;-69
2021/06/17 12:54:41;;;;;;;3.78;1.70;;;39.40;28.40;;;;;;4424337;32;20349;-69
2021/06/17 12:57:10;;;;;;;3.40;1.65;;;38.90;28.30;;;;;;4423938;32;20188;-69
2021/06/17 12:59:47;;;;;;;2.65;1.60;;;38.80;29.00;;;;;;4423160;32;20143;-69
2021/06/17 13:02:34;;;;;;;2.78;1.60;;;37.90;28.70;;;;;;4424870;32;20173;-69
2021/06/17 13:05:07;;;;;;;3.55;1.73;;;38.20;30.40;;;;;;4412950;32;20243;-69
2021/06/17 13:07:36;;;;;;;5.53;2.10;;;38.50;30.90;;;;;;4425029;32;20189;-70
2021/06/17 13:10:13;;;;;;;3.67;1.83;;;38.00;30.40;;;;;;4423430;32;20234;-70